Time;durP1;ratioP1;P1;durP2;ratioP2;P2;SDS_P1;SDS_P2;PMS_P1;PMS_P2;Temp;Humidity;BMP_temperature;BMP_pressure;BME280_temperature;BME280_humidity;BME280_pressure;Samples;Min_cycle;Max_cycle;Signal;HPM_P1;HPM_P2
2022/03/26 00:01:28;;;;;;;53.30;31.40;;;;;;;7.50;51.63;101112.02;106029;1273;22528;-74
2022/03/26 00:03:55;;;;;;;43.70;27.10;;;;;;;7.45;52.03;101105.43;106038;1273;22534;-75
2022/03/26 00:06:22;;;;;;;38.70;24.20;;;;;;;7.41;52.14;101106.61;106152;1273;26513;-75
2022/03/26 00:08:49;;;;;;;51.10;28.90;;;;;;;7.36;52.30;101107.23;105979;1274;22627;-75
2022/03/26 00:11:16;;;;;;;42.60;27.80;;;;;;;7.33;52.60;101103.33;106071;1273;22540;-81
2022/03/26 00:13:43;;;;;;;48.80;28.60;;;;;;;7.30;52.74;101103.98;106136;1273;22577;-77
2022/03/26 00:16:10;;;;;;;46.20;26.30;;;;;;;7.26;52.88;101102.17;105749;1273;23921;-76
2022/03/26 00:18:38;;;;;;;40.90;27.60;;;;;;;7.21;53.20;101096.31;106090;1273;22547;-77
2022/03/26 00:21:06;;;;;;;44.80;30.00;;;;;;;7.23;53.15;101093.02;105905;1274;26693;-77
2022/03/26 00:23:33;;;;;;;51.70;30.80;;;;;;;7.24;53.25;101089.16;106055;1273;22807;-79
2022/03/26 00:26:01;;;;;;;45.70;28.40;;;;;;;7.22;53.41;101083.35;106071;1273;24335;-78
2022/03/26 00:28:28;;;;;;;44.50;27.00;;;;;;;7.23;53.28;101080.23;106087;1273;24313;-78
2022/03/26 00:30:56;;;;;;;39.90;24.10;;;;;;;7.22;53.35;101080.55;105801;1273;22740;-76
2022/03/26 00:33:23;;;;;;;47.30;29.30;;;;;;;7.18;53.63;101084.54;105862;1273;22555;-76
2022/03/26 00:35:50;;;;;;;48.70;29.80;;;;;;;7.15;53.61;101081.68;106351;1273;22731;-78
2022/03/26 00:38:16;;;;;;;45.00;27.60;;;;;;;7.10;53.93;101073.36;106416;1273;25240;-82
2022/03/26 00:40:43;;;;;;;38.80;25.70;;;;;;;7.12;53.97;101078.14;106124;1273;22545;-78
2022/03/26 00:43:10;;;;;;;40.10;27.20;;;;;;;7.09;53.96;101078.79;105571;1278;24147;-77
2022/03/26 00:45:37;;;;;;;38.50;25.70;;;;;;;7.04;54.35;101077.48;105761;1279;25647;-78
2022/03/26 00:48:05;;;;;;;49.00;29.30;;;;;;;7.02;54.49;101074.30;105637;1279;22544;-78
2022/03/26 00:50:32;;;;;;;53.00;29.80;;;;;;;7.02;54.53;101072.36;105694;1277;22976;-77
2022/03/26 00:53:00;;;;;;;47.50;29.60;;;;;;;6.99;54.68;101072.13;105693;1279;22642;-76
2022/03/26 00:55:27;;;;;;;35.60;21.00;;;;;;;6.99;54.79;101074.41;105880;1279;24277;-78
2022/03/26 00:57:54;;;;;;;46.50;28.30;;;;;;;6.91;55.02;101067.63;105816;1279;26648;-78
2022/03/26 01:00:21;;;;;;;46.50;25.40;;;;;;;6.88;55.45;101068.09;106156;1277;23537;-76
2022/03/26 01:02:48;;;;;;;42.80;25.20;;;;;;;6.80;55.86;101063.23;107308;1273;25455;-76
2022/03/26 01:05:15;;;;;;;48.80;30.10;;;;;;;6.74;56.14;101064.54;107856;1273;22666;-75
2022/03/26 01:07:42;;;;;;;50.30;29.40;;;;;;;6.72;56.40;101060.12;107949;1272;22538;-76
2022/03/26 01:10:09;;;;;;;43.40;29.40;;;;;;;6.69;56.58;101054.30;107484;1274;23914;-72
2022/03/26 01:12:36;;;;;;;53.10;32.60;;;;;;;6.72;56.62;101055.22;107615;1273;25320;-72
2022/03/26 01:15:03;;;;;;;53.30;27.90;;;;;;;6.73;56.88;101047.02;107301;1278;22763;-71
2022/03/26 01:17:31;;;;;;;44.00;27.50;;;;;;;6.72;56.83;101046.81;106333;1279;22485;-74
2022/03/26 01:19:59;;;;;;;44.90;28.00;;;;;;;6.70;57.10;101045.02;105985;1280;24391;-74
2022/03/26 01:22:27;;;;;;;47.30;27.40;;;;;;;6.71;57.11;101046.80;104948;1288;22548;-74
2022/03/26 01:24:54;;;;;;;42.00;27.40;;;;;;;6.72;57.04;101049.10;105733;1287;22578;-74
2022/03/26 01:27:20;;;;;;;50.90;30.20;;;;;;;6.70;57.22;101050.12;105695;1287;22648;-82
2022/03/26 01:29:47;;;;;;;42.90;25.70;;;;;;;6.65;57.47;101052.31;105842;1287;22663;-73
2022/03/26 01:32:15;;;;;;;52.80;29.20;;;;;;;6.61;57.38;101048.73;105635;1287;25262;-74
2022/03/26 01:34:42;;;;;;;50.30;29.90;;;;;;;6.55;57.49;101045.66;105570;1282;25240;-69
2022/03/26 01:37:09;;;;;;;43.20;26.70;;;;;;;6.54;57.73;101045.98;105716;1281;22931;-76
2022/03/26 01:39:36;;;;;;;48.70;28.30;;;;;;;6.52;57.72;101040.87;106157;1281;22545;-72
2022/03/26 01:42:06;;;;;;;43.30;28.40;;;;;;;6.51;57.94;101042.61;106935;1274;23887;-75
2022/03/26 01:44:33;;;;;;;45.90;27.90;;;;;;;6.50;57.89;101034.71;107482;1273;24128;-71
2022/03/26 01:47:00;;;;;;;49.30;30.10;;;;;;;6.53;57.87;101034.06;106538;1273;24227;-72
2022/03/26 01:49:28;;;;;;;34.60;22.80;;;;;;;6.51;57.96;101027.20;106289;1273;26510;-74
2022/03/26 01:51:57;;;;;;;49.10;30.40;;;;;;;6.49;58.04;101021.05;106330;1273;24227;-73
2022/03/26 01:54:25;;;;;;;43.30;25.90;;;;;;;6.49;58.00;101022.80;106521;1273;26508;-83
2022/03/26 01:56:53;;;;;;;44.50;27.20;;;;;;;6.50;57.95;101025.27;106396;1274;25410;-73
2022/03/26 01:59:25;;;;;;;41.20;27.10;;;;;;;6.44;58.13;101022.89;106608;1273;22711;-73
2022/03/26 02:01:52;;;;;;;45.40;28.40;;;;;;;6.43;58.22;101021.30;106162;1273;25372;-71
2022/03/26 02:04:23;;;;;;;38.90;24.50;;;;;;;6.38;58.47;101007.20;106084;1274;22525;-80
2022/03/26 02:06:50;;;;;;;46.30;27.80;;;;;;;6.35;58.59;101007.84;106078;1273;26504;-78
2022/03/26 02:09:17;;;;;;;49.50;28.30;;;;;;;6.33;58.75;101004.31;106216;1274;22547;-75
2022/03/26 02:11:46;;;;;;;44.30;26.90;;;;;;;6.30;59.03;101004.43;106437;1273;25220;-74
2022/03/26 02:14:14;;;;;;;48.70;29.00;;;;;;;6.25;59.11;100996.13;106391;1273;22537;-74
2022/03/26 02:16:43;;;;;;;40.70;26.90;;;;;;;6.22;59.28;100992.23;106307;1273;24275;-73
2022/03/26 02:19:10;;;;;;;39.50;23.90;;;;;;;6.21;59.36;100982.77;106183;1273;25775;-74
2022/03/26 02:21:38;;;;;;;42.30;27.30;;;;;;;6.22;59.94;100983.65;106146;1273;24273;-74
2022/03/26 02:24:06;;;;;;;44.80;26.60;;;;;;;6.23;59.62;100982.45;106365;1272;23865;-75
2022/03/26 02:26:33;;;;;;;36.80;23.10;;;;;;;6.27;59.65;100974.13;106161;1273;26504;-76
2022/03/26 02:29:07;;;;;;;43.60;26.80;;;;;;;6.26;59.83;100972.88;105952;1273;25417;-74
2022/03/26 02:31:36;;;;;;;38.50;25.90;;;;;;;6.26;59.83;100977.78;106257;1273;24432;-75
2022/03/26 02:34:05;;;;;;;49.00;27.70;;;;;;;6.27;59.72;100969.92;106154;1273;25240;-75
2022/03/26 02:36:33;;;;;;;43.40;26.50;;;;;;;6.27;59.64;100973.77;106209;1273;22691;-74
2022/03/26 02:39:02;;;;;;;38.10;25.30;;;;;;;6.26;59.77;100966.77;106086;1273;26521;-72
2022/03/26 02:41:29;;;;;;;37.10;25.40;;;;;;;6.21;59.75;100964.22;106247;1273;23206;-71
2022/03/26 02:43:57;;;;;;;46.30;27.60;;;;;;;6.20;59.85;100967.00;106084;1273;25258;-74
2022/03/26 02:46:24;;;;;;;42.10;26.90;;;;;;;6.20;59.90;100957.73;106169;1273;22525;-74
2022/03/26 02:48:51;;;;;;;41.70;27.30;;;;;;;6.16;59.95;100951.36;105993;1274;22518;-71
2022/03/26 02:51:17;;;;;;;49.70;27.80;;;;;;;6.11;60.18;100945.32;106205;1273;24241;-77
2022/03/26 02:53:44;;;;;;;47.20;26.70;;;;;;;6.09;60.33;100939.86;106151;1273;22539;-74
2022/03/26 02:56:11;;;;;;;45.20;26.40;;;;;;;6.03;60.80;100937.66;105893;1273;22572;-73
2022/03/26 02:58:38;;;;;;;38.50;25.50;;;;;;;5.99;60.67;100934.58;106173;1273;25638;-72
2022/03/26 03:01:05;;;;;;;45.30;28.30;;;;;;;5.98;60.73;100932.64;105945;1273;22581;-73
2022/03/26 03:03:32;;;;;;;44.40;27.80;;;;;;;5.95;61.04;100919.48;105985;1273;24420;-72
2022/03/26 03:06:00;;;;;;;43.40;27.00;;;;;;;5.97;61.01;100930.36;106026;1273;24381;-70
2022/03/26 03:08:27;;;;;;;43.70;27.10;;;;;;;5.96;61.06;100929.45;105960;1273;22525;-72
2022/03/26 03:10:54;;;;;;;47.50;26.10;;;;;;;5.97;60.99;100922.14;106188;1273;22527;-68
2022/03/26 03:13:22;;;;;;;39.20;24.90;;;;;;;6.01;61.31;100915.21;106028;1274;24714;-73
2022/03/26 03:15:50;;;;;;;39.90;25.70;;;;;;;6.03;61.27;100914.21;106186;1273;22554;-74
2022/03/26 03:18:18;;;;;;;38.90;26.50;;;;;;;6.02;61.14;100906.52;106157;1273;25295;-75
2022/03/26 03:20:45;;;;;;;43.70;28.30;;;;;;;6.07;61.13;100908.70;106150;1273;26580;-74
2022/03/26 03:23:13;;;;;;;41.70;27.30;;;;;;;6.06;61.32;100904.32;106136;1273;22616;-72
2022/03/26 03:25:40;;;;;;;48.30;29.10;;;;;;;6.06;61.24;100902.91;106099;1273;25433;-72
2022/03/26 03:28:07;;;;;;;50.60;28.70;;;;;;;6.04;61.61;100901.84;106077;1273;24408;-71
2022/03/26 03:30:35;;;;;;;49.20;28.50;;;;;;;6.05;61.55;100897.83;106325;1273;23074;-75
2022/03/26 03:33:02;;;;;;;43.00;27.60;;;;;;;6.09;61.49;100901.22;106223;1273;23931;-73
2022/03/26 03:35:29;;;;;;;42.70;27.30;;;;;;;6.09;61.63;100904.89;105757;1279;22706;-74
2022/03/26 03:37:56;;;;;;;40.30;26.50;;;;;;;6.10;61.77;100908.77;105807;1279;22556;-77
2022/03/26 03:40:23;;;;;;;39.40;25.70;;;;;;;6.10;61.79;100909.30;105704;1279;25246;-73
2022/03/26 03:42:50;;;;;;;43.30;27.90;;;;;;;6.06;61.96;100906.58;105717;1279;22812;-72
2022/03/26 03:45:17;;;;;;;45.00;27.30;;;;;;;6.02;62.12;100900.71;105574;1279;23931;-70
2022/03/26 03:47:44;;;;;;;48.50;29.30;;;;;;;6.00;62.37;100897.88;105640;1279;24276;-71
2022/03/26 03:50:11;;;;;;;47.40;31.20;;;;;;;5.93;62.78;100894.45;105655;1279;22546;-71
2022/03/26 03:52:38;;;;;;;45.60;27.00;;;;;;;5.94;62.63;100895.16;105679;1279;23940;-73
2022/03/26 03:55:06;;;;;;;43.70;25.70;;;;;;;5.93;62.75;100893.21;106121;1274;22715;-72
2022/03/26 03:57:33;;;;;;;48.40;28.20;;;;;;;5.92;62.88;100885.32;106080;1273;25387;-78
2022/03/26 04:00:01;;;;;;;43.50;28.20;;;;;;;5.92;62.75;100887.09;105848;1273;22544;-72
2022/03/26 04:02:38;;;;;;;41.60;25.90;;;;;;;5.95;62.88;100880.66;106109;1273;22561;-75
2022/03/26 04:05:09;;;;;;;35.90;22.30;;;;;;;5.98;62.92;100874.93;105887;1273;24190;-70
2022/03/26 04:07:42;;;;;;;40.20;26.00;;;;;;;5.98;63.10;100865.52;106271;1273;25273;-75
2022/03/26 04:10:10;;;;;;;46.20;28.10;;;;;;;5.98;63.38;100870.75;106222;1279;22544;-74
2022/03/26 04:12:38;;;;;;;38.40;24.10;;;;;;;6.02;63.23;100867.14;106556;1276;24349;-75
2022/03/26 04:15:08;;;;;;;44.40;28.60;;;;;;;6.03;63.15;100863.49;106155;1279;25233;-72
2022/03/26 04:17:35;;;;;;;51.90;28.80;;;;;;;6.03;63.18;100857.39;105984;1279;22541;-80
2022/03/26 04:20:06;;;;;;;47.40;25.50;;;;;;;5.98;63.32;100855.02;106150;1279;25372;-74
2022/03/26 04:22:34;;;;;;;45.20;27.40;;;;;;;5.93;63.43;100850.23;106615;1279;23223;-74
2022/03/26 04:25:00;;;;;;;42.70;27.50;;;;;;;5.92;63.82;100846.52;106182;1279;25385;-71
2022/03/26 04:27:27;;;;;;;42.70;25.50;;;;;;;5.91;63.94;100842.67;105754;1279;25516;-75
2022/03/26 04:29:54;;;;;;;41.20;26.60;;;;;;;5.94;63.66;100838.19;105806;1279;22542;-74
2022/03/26 04:32:21;;;;;;;38.80;24.10;;;;;;;5.99;63.58;100840.52;105529;1279;25429;-74
2022/03/26 04:34:48;;;;;;;41.70;24.70;;;;;;;5.99;63.60;100836.33;105854;1274;22528;-72
2022/03/26 04:37:15;;;;;;;43.00;27.10;;;;;;;5.98;63.60;100844.36;106014;1274;22577;-74
2022/03/26 04:39:42;;;;;;;37.00;25.20;;;;;;;5.96;63.65;100841.51;106222;1273;25232;-74
2022/03/26 04:42:09;;;;;;;38.90;24.90;;;;;;;5.92;63.85;100843.03;106218;1273;24383;-74
2022/03/26 04:44:36;;;;;;;41.90;24.60;;;;;;;5.88;64.22;100837.70;106060;1273;22743;-75
2022/03/26 04:47:03;;;;;;;42.00;24.50;;;;;;;5.86;64.23;100844.67;106090;1273;24230;-72
2022/03/26 04:49:30;;;;;;;35.80;24.30;;;;;;;5.87;63.87;100843.28;105495;1281;25418;-74
2022/03/26 04:51:57;;;;;;;30.40;19.00;;;;;;;5.89;63.97;100834.06;105539;1281;25362;-74
2022/03/26 04:54:24;;;;;;;40.50;24.70;;;;;;;5.87;64.11;100839.27;105347;1282;22664;-74
2022/03/26 04:56:51;;;;;;;39.90;26.60;;;;;;;5.86;64.27;100838.39;105361;1282;23959;-74
2022/03/26 04:59:18;;;;;;;43.30;26.70;;;;;;;5.87;64.39;100830.88;104987;1287;25328;-71
2022/03/26 05:01:47;;;;;;;35.50;21.80;;;;;;;5.88;64.52;100824.60;105051;1287;24488;-75
2022/03/26 05:04:14;;;;;;;40.30;23.10;;;;;;;5.90;64.64;100819.21;104855;1287;22588;-75
2022/03/26 05:06:42;;;;;;;37.90;24.60;;;;;;;5.94;64.57;100817.19;105018;1287;23200;-73
2022/03/26 05:09:09;;;;;;;44.40;26.50;;;;;;;5.99;64.48;100819.38;105541;1279;24386;-71
2022/03/26 05:11:36;;;;;;;39.70;23.00;;;;;;;6.05;64.41;100815.29;104945;1284;24449;-76
2022/03/26 05:14:04;;;;;;;33.90;21.90;;;;;;;6.09;64.34;100809.59;104906;1285;24092;-75
2022/03/26 05:16:31;;;;;;;37.20;21.80;;;;;;;6.11;64.26;100810.84;104994;1285;25264;-75
2022/03/26 05:18:58;;;;;;;26.90;19.30;;;;;;;6.12;64.25;100810.51;105573;1281;22578;-75
2022/03/26 05:21:25;;;;;;;31.90;21.00;;;;;;;6.13;64.19;100811.94;105529;1281;22557;-76
2022/03/26 05:23:52;;;;;;;41.40;25.90;;;;;;;6.15;64.18;100804.63;105025;1285;25910;-75
2022/03/26 05:26:22;;;;;;;42.40;24.40;;;;;;;6.24;64.28;100805.10;104954;1285;24291;-75
2022/03/26 05:28:50;;;;;;;36.00;23.90;;;;;;;6.31;64.11;100794.72;104995;1284;22561;-72
2022/03/26 05:31:17;;;;;;;38.70;23.20;;;;;;;6.37;63.97;100790.95;105576;1279;25322;-74
2022/03/26 05:33:45;;;;;;;45.00;26.20;;;;;;;6.38;64.06;100793.23;105582;1279;22602;-75
2022/03/26 05:36:11;;;;;;;42.30;24.10;;;;;;;6.40;64.09;100791.36;105601;1279;22541;-75
2022/03/26 05:38:38;;;;;;;36.70;24.30;;;;;;;6.39;63.91;100786.23;105578;1278;25429;-74
2022/03/26 05:41:05;;;;;;;36.60;22.80;;;;;;;6.41;64.03;100784.89;105791;1278;22553;-85
2022/03/26 05:43:32;;;;;;;39.70;25.00;;;;;;;6.44;63.83;100783.89;107039;1273;24211;-77
2022/03/26 05:45:59;;;;;;;41.00;23.90;;;;;;;6.46;63.85;100775.70;106187;1273;22529;-79
2022/03/26 05:48:26;;;;;;;38.40;23.90;;;;;;;6.51;63.69;100776.09;106054;1274;22649;-80
2022/03/26 05:50:53;;;;;;;37.30;23.20;;;;;;;6.56;63.93;100784.73;106200;1273;24773;-78
2022/03/26 05:53:20;;;;;;;41.90;22.20;;;;;;;6.61;63.82;100786.05;106141;1273;22525;-75
2022/03/26 05:55:47;;;;;;;34.00;19.50;;;;;;;6.65;63.70;100791.88;106295;1272;25283;-78
2022/03/26 05:58:15;;;;;;;37.40;23.00;;;;;;;6.71;63.75;100790.20;106087;1274;22675;-78
2022/03/26 06:00:42;;;;;;;36.30;23.40;;;;;;;6.72;63.86;100791.96;105495;1280;22538;-77
2022/03/26 06:03:09;;;;;;;35.80;23.00;;;;;;;6.78;63.64;100794.13;105890;1279;22710;-78
2022/03/26 06:05:38;;;;;;;30.90;21.40;;;;;;;6.82;63.81;100786.14;105673;1279;22611;-74
2022/03/26 06:08:07;;;;;;;37.90;22.80;;;;;;;6.90;63.86;100776.61;105282;1282;22799;-72
2022/03/26 06:10:35;;;;;;;30.80;19.60;;;;;;;6.97;63.97;100777.39;105256;1282;24252;-72
2022/03/26 06:13:02;;;;;;;32.80;20.90;;;;;;;7.08;63.65;100776.10;105337;1282;25526;-75
2022/03/26 06:15:29;;;;;;;29.90;19.50;;;;;;;7.18;63.76;100772.02;105225;1282;23927;-73
2022/03/26 06:18:10;;;;;;;33.90;21.40;;;;;;;7.27;63.46;100773.35;105389;1277;25253;-81
2022/03/26 06:20:37;;;;;;;36.40;22.30;;;;;;;7.31;63.43;100763.92;105627;1277;22861;-78
2022/03/26 06:23:04;;;;;;;32.70;20.20;;;;;;;7.42;63.31;100766.65;105854;1277;22544;-74
2022/03/26 06:25:31;;;;;;;31.70;21.70;;;;;;;7.50;63.06;100768.33;105944;1274;25308;-76
2022/03/26 06:27:59;;;;;;;25.20;16.60;;;;;;;7.59;63.20;100755.26;106362;1271;22578;-76
2022/03/26 06:30:26;;;;;;;30.30;18.80;;;;;;;7.74;62.86;100753.29;106101;1272;22534;-71
2022/03/26 06:32:53;;;;;;;29.70;18.80;;;;;;;7.87;62.67;100753.73;106149;1273;25471;-78
2022/03/26 06:35:20;;;;;;;29.00;18.40;;;;;;;7.99;62.38;100752.25;106140;1273;24292;-80
2022/03/26 06:37:47;;;;;;;27.40;17.10;;;;;;;8.12;62.29;100735.85;106219;1274;22652;-81
2022/03/26 06:40:14;;;;;;;23.20;15.50;;;;;;;8.26;62.11;100744.17;106261;1274;24250;-73
2022/03/26 06:42:41;;;;;;;25.60;16.10;;;;;;;8.43;61.82;100733.92;106192;1274;22570;-74
2022/03/26 06:45:09;;;;;;;25.60;16.40;;;;;;;8.57;61.39;100736.13;106009;1274;26563;-76
2022/03/26 06:47:36;;;;;;;28.50;16.00;;;;;;;8.67;61.05;100734.77;106183;1273;24308;-73
2022/03/26 06:50:02;;;;;;;23.40;14.20;;;;;;;8.78;60.90;100733.23;106303;1274;23473;-76
2022/03/26 06:52:29;;;;;;;22.80;15.40;;;;;;;8.92;60.41;100737.32;106250;1273;22636;-78
2022/03/26 06:54:57;;;;;;;21.10;13.00;;;;;;;9.03;60.15;100737.35;106146;1275;22544;-77
2022/03/26 06:57:24;;;;;;;19.50;14.00;;;;;;;9.15;59.85;100737.02;106200;1274;22564;-77
2022/03/26 06:59:51;;;;;;;16.90;12.70;;;;;;;9.24;59.62;100748.65;106163;1273;22635;-76
2022/03/26 07:02:18;;;;;;;23.40;15.10;;;;;;;9.36;59.30;100746.21;106180;1273;22476;-75
2022/03/26 07:04:45;;;;;;;16.60;9.70;;;;;;;9.47;58.87;100738.67;106063;1273;23941;-75
2022/03/26 07:07:14;;;;;;;21.70;12.50;;;;;;;9.56;58.66;100734.45;106227;1273;22615;-75
2022/03/26 07:09:41;;;;;;;23.10;14.10;;;;;;;9.59;58.29;100721.46;106221;1273;22752;-71
2022/03/26 07:12:09;;;;;;;26.90;15.40;;;;;;;9.69;58.03;100715.29;106202;1273;22574;-74
2022/03/26 07:14:35;;;;;;;27.20;16.30;;;;;;;9.72;57.88;100718.46;105991;1275;22626;-74
2022/03/26 07:17:02;;;;;;;26.30;15.70;;;;;;;9.73;57.64;100722.85;106132;1274;22569;-76
2022/03/26 07:19:29;;;;;;;25.40;14.00;;;;;;;9.74;57.62;100718.98;106181;1274;23961;-77
2022/03/26 07:21:56;;;;;;;27.10;15.00;;;;;;;9.75;57.52;100718.64;106719;1274;22725;-73
2022/03/26 07:24:23;;;;;;;24.20;16.20;;;;;;;9.75;57.58;100711.24;108228;1273;22643;-74
2022/03/26 07:26:50;;;;;;;26.50;16.30;;;;;;;9.77;57.51;100723.73;106488;1274;24210;-78
2022/03/26 07:29:17;;;;;;;23.00;14.30;;;;;;;9.75;57.49;100714.60;107759;1273;22507;-74
2022/03/26 07:31:46;;;;;;;23.00;15.00;;;;;;;9.80;57.57;100718.10;108649;1273;22686;-74
2022/03/26 07:34:15;;;;;;;25.80;14.10;;;;;;;9.89;57.55;100712.64;106723;1273;24217;-76
2022/03/26 07:36:43;;;;;;;30.10;16.10;;;;;;;9.95;57.38;100715.63;106120;1274;22712;-78
2022/03/26 07:39:12;;;;;;;25.30;14.20;;;;;;;9.93;57.21;100709.65;106258;1273;24289;-74
2022/03/26 07:41:40;;;;;;;19.40;14.30;;;;;;;9.91;57.19;100706.85;106173;1274;25634;-72
2022/03/26 07:44:07;;;;;;;21.90;15.00;;;;;;;9.97;57.28;100714.39;106281;1273;22559;-75
2022/03/26 07:46:34;;;;;;;21.50;13.30;;;;;;;10.04;57.10;100715.09;106016;1273;22549;-72
2022/03/26 07:49:03;;;;;;;22.30;14.00;;;;;;;10.15;57.00;100712.78;106173;1273;22586;-75
2022/03/26 07:51:30;;;;;;;21.30;14.60;;;;;;;10.25;56.69;100710.63;106110;1274;26507;-75
2022/03/26 07:53:58;;;;;;;23.70;15.40;;;;;;;10.28;56.61;100708.88;106313;1274;23008;-74
2022/03/26 07:56:25;;;;;;;21.40;15.50;;;;;;;10.37;56.56;100713.59;106308;1273;25531;-75
2022/03/26 07:58:52;;;;;;;21.10;14.10;;;;;;;10.43;56.42;100712.88;106313;1273;25398;-76
2022/03/26 08:01:19;;;;;;;21.50;14.80;;;;;;;10.48;56.34;100716.59;105835;1276;22707;-77
2022/03/26 08:03:49;;;;;;;23.60;12.80;;;;;;;10.49;56.25;100715.19;105882;1277;22557;-78
2022/03/26 08:06:16;;;;;;;20.20;13.90;;;;;;;10.51;56.22;100707.78;106028;1277;25393;-74
2022/03/26 08:08:43;;;;;;;23.70;16.40;;;;;;;10.53;56.29;100707.77;105852;1276;22716;-76
2022/03/26 08:11:10;;;;;;;18.40;13.20;;;;;;;10.61;56.28;100713.73;105865;1278;24213;-76
2022/03/26 08:13:37;;;;;;;20.80;14.10;;;;;;;10.74;56.18;100717.02;105692;1276;24391;-78
2022/03/26 08:16:04;;;;;;;20.40;13.30;;;;;;;10.78;56.02;100711.19;105709;1279;22530;-75
2022/03/26 08:18:31;;;;;;;24.50;13.30;;;;;;;10.88;56.10;100705.67;105719;1277;25387;-75
2022/03/26 08:21:03;;;;;;;19.10;14.30;;;;;;;11.00;55.85;100707.20;106071;1275;26505;-76
2022/03/26 08:23:30;;;;;;;19.00;13.30;;;;;;;11.12;55.77;100706.06;106029;1275;22580;-76
2022/03/26 08:28:43;;;;;;;17.60;10.60;;;;;;;11.34;55.95;100703.80;105867;1275;222419;-71
2022/03/26 08:31:10;;;;;;;15.00;10.10;;;;;;;11.55;55.84;100704.69;106006;1275;22548;-74
2022/03/26 08:33:37;;;;;;;26.90;10.40;;;;;;;11.78;55.50;100700.10;106042;1276;22535;-73
2022/03/26 08:36:05;;;;;;;18.60;10.20;;;;;;;11.94;55.04;100702.23;105975;1277;26516;-75
2022/03/26 08:38:33;;;;;;;21.90;12.60;;;;;;;12.02;54.88;100709.58;106039;1276;25476;-71
2022/03/26 08:41:00;;;;;;;24.10;10.60;;;;;;;12.00;54.75;100711.89;105970;1276;22877;-73
2022/03/26 08:43:27;;;;;;;17.40;10.90;;;;;;;12.01;54.72;100719.83;106036;1274;25482;-76
2022/03/26 08:45:54;;;;;;;17.20;11.40;;;;;;;12.01;54.65;100720.52;105934;1276;26575;-73
2022/03/26 08:48:21;;;;;;;16.80;11.90;;;;;;;12.00;54.59;100726.73;106132;1274;25368;-77
2022/03/26 08:50:48;;;;;;;18.00;12.00;;;;;;;11.96;54.66;100723.23;106066;1274;25253;-72
2022/03/26 08:53:15;;;;;;;26.00;12.30;;;;;;;11.97;54.72;100727.46;105924;1279;24270;-72
2022/03/26 08:55:42;;;;;;;20.40;12.40;;;;;;;11.92;54.70;100735.42;105894;1276;25257;-76
2022/03/26 08:58:10;;;;;;;21.60;12.30;;;;;;;11.83;54.80;100737.80;105968;1276;25253;-75
2022/03/26 09:00:51;;;;;;;20.90;11.80;;;;;;;11.76;54.98;100736.98;105789;1276;24227;-76
2022/03/26 09:03:20;;;;;;;27.10;14.80;;;;;;;11.61;55.21;100750.52;106114;1276;22713;-75
2022/03/26 09:05:56;;;;;;;17.10;11.30;;;;;;;11.46;55.60;100744.80;105982;1278;22747;-74
2022/03/26 09:08:23;;;;;;;24.00;15.30;;;;;;;11.37;55.98;100743.81;105840;1277;25320;-74
2022/03/26 09:10:50;;;;;;;31.00;15.60;;;;;;;11.32;55.96;100745.08;105449;1281;22542;-77
2022/03/26 09:13:16;;;;;;;18.60;13.30;;;;;;;11.27;56.12;100747.22;105600;1280;25490;-74
2022/03/26 09:15:44;;;;;;;24.50;14.80;;;;;;;11.25;56.19;100748.46;105624;1281;22538;-74
2022/03/26 09:18:11;;;;;;;22.60;14.40;;;;;;;11.23;56.22;100751.13;105776;1280;23245;-75
2022/03/26 09:20:38;;;;;;;22.00;14.30;;;;;;;11.30;56.12;100750.20;105522;1281;24890;-76
2022/03/26 09:23:06;;;;;;;22.90;15.30;;;;;;;11.29;56.25;100742.45;105096;1286;23980;-76
2022/03/26 09:25:35;;;;;;;16.90;12.30;;;;;;;11.25;56.22;100743.71;105073;1287;22577;-76
2022/03/26 09:28:02;;;;;;;23.90;13.70;;;;;;;11.18;56.45;100749.20;105110;1284;22705;-74
2022/03/26 09:30:29;;;;;;;20.50;12.40;;;;;;;11.08;56.55;100754.20;105638;1279;22729;-73
2022/03/26 09:32:56;;;;;;;18.20;11.10;;;;;;;11.01;56.71;100749.48;105690;1278;25388;-74
2022/03/26 09:35:23;;;;;;;20.40;14.30;;;;;;;11.00;56.70;100754.25;105669;1279;25601;-73
2022/03/26 09:37:50;;;;;;;18.60;13.20;;;;;;;11.04;56.73;100753.70;105696;1278;23926;-73
2022/03/26 09:40:19;;;;;;;23.20;13.50;;;;;;;11.12;56.64;100753.48;105717;1281;22552;-75
2022/03/26 09:42:46;;;;;;;23.30;15.90;;;;;;;11.16;56.53;100746.95;106044;1274;22563;-75
2022/03/26 09:45:13;;;;;;;29.70;15.50;;;;;;;11.23;56.59;100748.85;106113;1275;23935;-76
2022/03/26 09:47:40;;;;;;;18.30;11.30;;;;;;;11.18;56.51;100748.16;106036;1274;24301;-75
2022/03/26 09:50:09;;;;;;;33.20;15.90;;;;;;;11.15;56.75;100750.99;105956;1276;25674;-76
2022/03/26 09:52:37;;;;;;;28.90;13.70;;;;;;;11.15;56.68;100760.16;106053;1274;22620;-73
2022/03/26 09:55:12;;;;;;;21.70;14.10;;;;;;;11.08;56.79;100757.19;105969;1275;22566;-75
2022/03/26 09:57:41;;;;;;;19.20;13.20;;;;;;;11.02;57.21;100755.48;106128;1275;25535;-76
2022/03/26 10:00:09;;;;;;;30.00;16.00;;;;;;;10.88;57.60;100762.77;105890;1277;25233;-76
2022/03/26 10:02:41;;;;;;;21.90;15.60;;;;;;;10.78;58.04;100761.92;105964;1275;22796;-73
2022/03/26 10:05:12;;;;;;;20.40;13.20;;;;;;;10.68;58.45;100765.31;105844;1277;22761;-71
2022/03/26 10:07:40;;;;;;;28.50;16.70;;;;;;;10.57;58.81;100764.29;105683;1281;25489;-73
2022/03/26 10:10:20;;;;;;;25.70;15.00;;;;;;;10.55;58.67;100766.39;105594;1281;22692;-74
2022/03/26 10:12:51;;;;;;;24.80;15.60;;;;;;;10.55;58.92;100767.81;105566;1278;23680;-75
2022/03/26 10:15:19;;;;;;;18.40;13.40;;;;;;;10.59;59.23;100770.63;105734;1278;22620;-73
2022/03/26 10:17:46;;;;;;;23.20;15.20;;;;;;;10.52;59.73;100774.87;105591;1278;24079;-72
2022/03/26 10:20:15;;;;;;;22.70;15.60;;;;;;;10.42;60.15;100775.20;105649;1281;24412;-74
2022/03/26 10:22:48;;;;;;;16.40;10.70;;;;;;;10.40;60.33;100779.96;105465;1279;22856;-72
2022/03/26 10:25:18;;;;;;;22.70;16.20;;;;;;;10.36;60.90;100776.63;105852;1277;22629;-75
2022/03/26 10:27:55;;;;;;;24.00;14.20;;;;;;;10.32;61.54;100780.69;106117;1274;25681;-72
2022/03/26 10:33:21;;;;;;;19.90;14.60;;;;;;;10.24;61.93;100782.81;107874;1274;23171;-75
2022/03/26 10:35:53;;;;;;;15.20;10.10;;;;;;;10.31;61.58;100783.67;106448;1275;25586;-76
2022/03/26 10:38:30;;;;;;;19.20;13.80;;;;;;;10.41;61.69;100789.29;107837;1274;24349;-72
2022/03/26 10:41:06;;;;;;;19.00;12.70;;;;;;;10.46;61.36;100790.19;108058;1274;24090;-73
2022/03/26 10:43:36;;;;;;;20.30;13.00;;;;;;;10.49;61.16;100794.08;107086;1274;25351;-75
2022/03/26 10:46:03;;;;;;;21.20;14.00;;;;;;;10.49;61.09;100787.90;106224;1274;22560;-76
2022/03/26 10:48:33;;;;;;;21.40;12.80;;;;;;;10.49;60.93;100791.95;106318;1274;25438;-74
2022/03/26 10:51:10;;;;;;;16.70;13.90;;;;;;;10.52;60.94;100793.54;106074;1274;24268;-74
2022/03/26 10:53:46;;;;;;;17.10;11.50;;;;;;;10.49;60.80;100790.55;106291;1274;22730;-73
2022/03/26 10:56:14;;;;;;;;;;;;;;;10.46;60.86;100791.94;106090;1274;25364;-73
2022/03/26 10:58:46;;;;;;;16.70;11.90;;;;;;;10.43;60.87;100794.74;106113;1273;25375;-74
2022/03/26 11:01:13;;;;;;;23.90;13.70;;;;;;;10.42;60.61;100798.10;106134;1274;23015;-74
2022/03/26 11:03:41;;;;;;;19.90;14.10;;;;;;;10.40;60.69;100798.11;106056;1275;25316;-74
2022/03/26 11:06:11;;;;;;;17.80;12.40;;;;;;;10.39;60.76;100791.41;106000;1274;24177;-82
2022/03/26 11:08:40;;;;;;;15.30;11.90;;;;;;;10.41;60.64;100789.45;106128;1274;22530;-72
2022/03/26 11:11:09;;;;;;;16.00;11.30;;;;;;;10.46;60.60;100791.96;105955;1275;22554;-74
2022/03/26 11:13:43;;;;;;;18.90;12.80;;;;;;;10.50;60.36;100794.23;106007;1274;22546;-72
2022/03/26 11:16:28;;;;;;;14.30;10.20;;;;;;;10.57;60.26;100792.46;106014;1274;24434;-76